createdAt,value
2022-09-21T00:00:49.850Z,0.00
2022-09-21T00:01:49.843Z,0.00
2022-09-21T00:02:49.867Z,0.00
2022-09-21T00:03:50.047Z,0.00
2022-09-21T00:04:49.917Z,0.00
2022-09-21T00:05:49.942Z,0.00
2022-09-21T00:06:49.970Z,0.00
2022-09-21T00:07:50.008Z,0.00
2022-09-21T00:08:50.018Z,0.00
2022-09-21T00:09:50.041Z,0.00
2022-09-21T00:10:50.066Z,0.00
2022-09-21T00:11:50.094Z,0.00
2022-09-21T00:12:50.117Z,0.00
2022-09-21T00:13:50.143Z,0.00
2022-09-21T00:14:50.167Z,0.00
2022-09-21T00:15:50.194Z,0.00
2022-09-21T00:16:50.241Z,0.00
2022-09-21T00:17:50.243Z,0.00
2022-09-21T00:18:50.272Z,0.00
2022-09-21T00:19:50.311Z,0.00
2022-09-21T00:20:50.317Z,0.00
2022-09-21T00:21:50.342Z,0.00
2022-09-21T00:22:50.370Z,0.00
2022-09-21T00:23:50.393Z,0.00
2022-09-21T00:24:50.416Z,0.00
2022-09-21T00:25:50.442Z,0.00
2022-09-21T00:26:50.500Z,0.00
2022-09-21T00:27:50.493Z,0.00
2022-09-21T00:28:50.516Z,0.00
2022-09-21T00:29:50.544Z,0.00
2022-09-21T00:30:50.568Z,0.00
2022-09-21T00:31:50.627Z,0.00
2022-09-21T00:32:50.616Z,0.00
2022-09-21T00:33:50.642Z,0.00
2022-09-21T00:34:50.665Z,0.00
2022-09-21T00:35:50.711Z,0.00
2022-09-21T00:36:50.717Z,0.00
2022-09-21T00:37:50.744Z,0.00
2022-09-21T00:38:50.767Z,0.00
2022-09-21T00:39:50.794Z,0.00
2022-09-21T00:40:50.817Z,0.00
2022-09-21T00:41:50.842Z,0.00
2022-09-21T00:42:50.865Z,0.00
2022-09-21T00:43:50.891Z,0.00
2022-09-21T00:44:50.915Z,0.00
2022-09-21T00:45:51.047Z,0.00
2022-09-21T00:46:50.966Z,0.00
2022-09-21T00:47:50.992Z,0.00
2022-09-21T00:48:51.016Z,0.00
2022-09-21T00:49:51.042Z,0.00
2022-09-21T00:50:51.065Z,0.00
2022-09-21T00:51:51.109Z,0.00
2022-09-21T00:52:51.115Z,0.00
2022-09-21T00:53:51.141Z,0.00
2022-09-21T00:54:51.166Z,0.00
2022-09-21T00:55:51.191Z,0.00
2022-09-21T00:56:51.216Z,0.00
2022-09-21T00:57:51.241Z,0.00
2022-09-21T00:58:51.263Z,0.00
2022-09-21T00:59:51.290Z,0.00
2022-09-21T01:00:51.384Z,0.00
2022-09-21T01:01:51.408Z,0.00
2022-09-21T01:02:51.363Z,0.00
2022-09-21T01:03:51.396Z,0.00
2022-09-21T01:04:51.412Z,0.00
2022-09-21T01:05:51.442Z,0.00
2022-09-21T01:06:51.464Z,0.00
2022-09-21T01:07:51.505Z,0.00
2022-09-21T01:08:51.513Z,0.00
2022-09-21T01:09:51.540Z,0.00
2022-09-21T01:10:51.563Z,0.00
2022-09-21T01:11:51.591Z,0.00
2022-09-21T01:12:51.614Z,0.00
2022-09-21T01:13:51.640Z,0.00
2022-09-21T01:14:51.662Z,0.00
2022-09-21T01:15:51.688Z,0.00
2022-09-21T01:16:51.712Z,0.00
2022-09-21T01:17:51.738Z,0.00
2022-09-21T01:18:51.761Z,0.00
2022-09-21T01:19:51.787Z,0.00
2022-09-21T01:20:51.811Z,0.00
2022-09-21T01:21:51.838Z,0.00
2022-09-21T01:22:51.860Z,0.00
2022-09-21T01:23:51.907Z,0.00
2022-09-21T01:24:51.917Z,0.00
2022-09-21T01:25:51.935Z,0.00
2022-09-21T01:26:51.963Z,0.00
2022-09-21T01:27:51.985Z,0.00
2022-09-21T01:28:52.010Z,0.00
2022-09-21T01:29:52.035Z,0.00
2022-09-21T01:30:52.057Z,0.00
2022-09-21T01:31:52.128Z,0.00
2022-09-21T01:32:52.108Z,0.00
2022-09-21T01:33:52.134Z,0.00
2022-09-21T01:34:52.158Z,0.00
2022-09-21T01:35:52.182Z,0.00
2022-09-21T01:36:52.207Z,0.00
2022-09-21T01:37:52.231Z,0.00
2022-09-21T01:38:52.256Z,0.00
2022-09-21T01:39:52.299Z,0.00
2022-09-21T01:40:52.307Z,0.00
2022-09-21T01:41:52.331Z,0.00
2022-09-21T01:42:52.353Z,0.00
2022-09-21T01:43:52.380Z,0.00
2022-09-21T01:44:52.405Z,0.00
2022-09-21T01:45:52.470Z,0.00
2022-09-21T01:46:52.452Z,0.00
2022-09-21T01:47:52.480Z,0.00
2022-09-21T01:48:52.502Z,0.00
2022-09-21T01:49:52.527Z,0.00
2022-09-21T01:50:52.552Z,0.00
2022-09-21T01:51:52.577Z,0.00
2022-09-21T01:52:52.600Z,0.00
2022-09-21T01:53:52.626Z,0.00
2022-09-21T01:54:52.650Z,0.00
2022-09-21T01:55:52.741Z,0.00
2022-09-21T01:56:52.698Z,0.00
2022-09-21T01:57:52.724Z,0.00
2022-09-21T01:58:52.748Z,0.00
2022-09-21T01:59:52.774Z,0.00
2022-09-21T02:00:52.818Z,0.00
2022-09-21T02:01:52.855Z,0.00
2022-09-21T02:02:52.846Z,0.00
2022-09-21T02:03:52.872Z,0.00
2022-09-21T02:04:52.896Z,0.00
2022-09-21T02:05:52.921Z,0.00
2022-09-21T02:06:52.945Z,0.00
2022-09-21T02:07:52.970Z,0.00
2022-09-21T02:08:52.994Z,0.00
2022-09-21T02:09:53.020Z,0.00
2022-09-21T02:10:53.043Z,0.00
2022-09-21T02:11:53.086Z,0.00
2022-09-21T02:12:53.092Z,0.00
2022-09-21T02:13:53.117Z,0.00
2022-09-21T02:14:53.142Z,0.00
2022-09-21T02:15:53.250Z,0.00
2022-09-21T02:16:53.190Z,0.00
2022-09-21T02:17:53.215Z,0.00
2022-09-21T02:18:53.239Z,0.00
2022-09-21T02:19:53.271Z,0.00
2022-09-21T02:20:53.288Z,0.00
2022-09-21T02:21:53.314Z,0.00
2022-09-21T02:22:53.337Z,0.00
2022-09-21T02:23:53.362Z,0.00
2022-09-21T02:24:53.387Z,0.00
2022-09-21T02:25:53.410Z,0.00
2022-09-21T02:26:53.435Z,0.00
2022-09-21T02:27:53.478Z,0.00
2022-09-21T02:28:53.483Z,0.00
2022-09-21T02:29:53.508Z,0.00
2022-09-21T02:30:53.532Z,0.00
2022-09-21T02:31:53.561Z,0.00
2022-09-21T02:32:53.584Z,0.00
2022-09-21T02:33:53.605Z,0.00
2022-09-21T02:34:53.629Z,0.00
2022-09-21T02:35:53.655Z,0.00
2022-09-21T02:36:53.678Z,0.00
2022-09-21T02:37:53.703Z,0.00
2022-09-21T02:38:53.727Z,0.00
2022-09-21T02:39:53.753Z,0.00
2022-09-21T02:40:53.780Z,0.00
2022-09-21T02:41:53.802Z,0.00
2022-09-21T02:42:53.825Z,0.00
2022-09-21T02:43:53.874Z,0.00
2022-09-21T02:44:53.875Z,0.00
2022-09-21T02:45:53.900Z,0.00
2022-09-21T02:46:53.969Z,0.00
2022-09-21T02:47:53.948Z,0.00
2022-09-21T02:48:53.971Z,0.00
2022-09-21T02:49:53.996Z,0.00
2022-09-21T02:50:56.640Z,0.00
2022-09-21T02:51:54.046Z,0.00
2022-09-21T02:52:54.069Z,0.00
2022-09-21T02:53:54.094Z,0.00
2022-09-21T02:54:54.116Z,0.00
2022-09-21T02:55:56.468Z,0.00
2022-09-21T02:56:54.164Z,0.00
2022-09-21T02:57:54.190Z,0.00
2022-09-21T02:58:54.213Z,0.00
2022-09-21T02:59:54.259Z,0.00
2022-09-21T03:00:54.283Z,0.00
2022-09-21T03:01:54.329Z,0.00
2022-09-21T03:02:54.314Z,0.00
2022-09-21T03:03:54.336Z,0.00
2022-09-21T03:04:54.361Z,0.00
2022-09-21T03:05:54.384Z,0.00
2022-09-21T03:06:54.411Z,0.00
2022-09-21T03:07:54.434Z,0.00
2022-09-21T03:08:54.460Z,0.00
2022-09-21T03:09:54.481Z,0.00
2022-09-21T03:10:54.507Z,0.00
2022-09-21T03:11:54.530Z,0.00
2022-09-21T03:12:54.557Z,0.00
2022-09-21T03:13:54.631Z,0.00
2022-09-21T03:14:54.606Z,0.00
2022-09-21T03:15:54.699Z,0.00
2022-09-21T03:16:54.653Z,0.00
2022-09-21T03:17:54.676Z,0.00
2022-09-21T03:18:54.707Z,0.00
2022-09-21T03:19:54.724Z,0.00
2022-09-21T03:20:54.751Z,0.00
2022-09-21T03:21:54.774Z,0.00
2022-09-21T03:22:54.798Z,0.00
2022-09-21T03:23:54.821Z,0.00
2022-09-21T03:24:54.847Z,0.00
2022-09-21T03:25:54.871Z,0.00
2022-09-21T03:26:54.895Z,0.00
2022-09-21T03:27:54.919Z,0.00
2022-09-21T03:28:55.013Z,0.00
2022-09-21T03:29:57.672Z,0.00
2022-09-21T03:30:55.024Z,0.00
2022-09-21T03:31:55.034Z,0.00
2022-09-21T03:32:55.040Z,0.00
2022-09-21T03:33:55.064Z,0.00
2022-09-21T03:34:55.087Z,0.00
2022-09-21T03:35:55.109Z,0.00
2022-09-21T03:36:55.136Z,0.00
2022-09-21T03:37:55.161Z,0.00
2022-09-21T03:38:55.185Z,0.00
2022-09-21T03:39:55.208Z,0.00
2022-09-21T03:40:55.233Z,0.00
2022-09-21T03:41:55.255Z,0.00
2022-09-21T03:42:55.280Z,0.00
2022-09-21T03:43:55.381Z,0.00
2022-09-21T03:44:55.332Z,0.00
2022-09-21T03:45:55.412Z,0.00
2022-09-21T03:46:55.377Z,0.00
2022-09-21T03:47:55.417Z,0.00
2022-09-21T03:48:55.427Z,0.00
2022-09-21T03:49:55.447Z,0.00
2022-09-21T03:50:55.473Z,0.00
2022-09-21T03:51:55.496Z,0.00
2022-09-21T03:52:55.523Z,0.00
2022-09-21T03:53:55.545Z,0.00
2022-09-21T03:54:55.569Z,0.00
2022-09-21T03:55:55.592Z,0.00
2022-09-21T03:56:55.618Z,0.00
2022-09-21T03:57:55.640Z,0.00
2022-09-21T03:58:55.665Z,0.00
2022-09-21T03:59:55.688Z,0.00
2022-09-21T04:00:55.713Z,0.00
2022-09-21T04:01:55.736Z,0.00
2022-09-21T04:02:55.819Z,0.00
2022-09-21T04:03:55.801Z,0.00
2022-09-21T04:04:55.810Z,0.00
2022-09-21T04:05:55.833Z,0.00
2022-09-21T04:06:55.858Z,0.00
2022-09-21T04:07:55.881Z,0.00
2022-09-21T04:08:55.907Z,0.00
2022-09-21T04:09:55.929Z,0.00
2022-09-21T04:10:55.954Z,0.00
2022-09-21T04:11:55.977Z,0.00
2022-09-21T04:12:56.002Z,0.00
2022-09-21T04:13:56.070Z,0.00
2022-09-21T04:14:56.049Z,0.00
2022-09-21T04:15:56.115Z,0.00
2022-09-21T04:16:56.099Z,0.00
2022-09-21T04:17:56.118Z,0.00
2022-09-21T04:18:56.147Z,0.00
2022-09-21T04:19:56.184Z,0.00
2022-09-21T04:20:56.193Z,0.00
2022-09-21T04:21:56.223Z,0.00
2022-09-21T04:22:56.241Z,0.00
2022-09-21T04:23:56.270Z,0.00
2022-09-21T04:24:56.290Z,0.00
2022-09-21T04:25:56.311Z,0.00
2022-09-21T04:26:56.337Z,0.00
2022-09-21T04:27:56.358Z,0.00
2022-09-21T04:28:56.385Z,0.00
2022-09-21T04:29:56.406Z,0.00
2022-09-21T04:30:56.454Z,0.00
2022-09-21T04:31:56.456Z,0.00
2022-09-21T04:32:56.480Z,0.00
2022-09-21T04:33:56.501Z,0.00
2022-09-21T04:34:56.527Z,0.00
2022-09-21T04:35:56.570Z,0.00
2022-09-21T04:36:56.575Z,0.00
2022-09-21T04:37:56.599Z,0.00
2022-09-21T04:38:56.623Z,0.00
2022-09-21T04:39:56.646Z,0.00
2022-09-21T04:40:56.671Z,0.00
2022-09-21T04:41:56.691Z,4.00
2022-09-21T04:42:56.719Z,4.00
2022-09-21T04:43:56.758Z,0.00
2022-09-21T04:44:56.766Z,4.00
2022-09-21T04:45:56.847Z,4.00
2022-09-21T04:46:56.813Z,4.00
2022-09-21T04:47:56.834Z,4.00
2022-09-21T04:48:56.860Z,4.00
2022-09-21T04:49:56.882Z,8.00
2022-09-21T04:50:56.907Z,8.00
2022-09-21T04:51:57.002Z,8.00
2022-09-21T04:52:56.956Z,8.00
2022-09-21T04:53:56.982Z,16.00
2022-09-21T04:54:57.003Z,16.00
2022-09-21T04:55:57.025Z,20.00
2022-09-21T04:56:57.054Z,24.00
2022-09-21T04:57:57.072Z,28.00
2022-09-21T04:58:57.098Z,36.00
2022-09-21T04:59:57.120Z,44.00
2022-09-21T05:00:57.144Z,48.00
2022-09-21T05:01:57.167Z,56.00
2022-09-21T05:02:57.192Z,64.00
2022-09-21T05:03:57.246Z,76.00
2022-09-21T05:04:57.240Z,84.00
2022-09-21T05:05:57.264Z,100.00
2022-09-21T05:06:57.287Z,112.00
2022-09-21T05:07:57.333Z,128.00
2022-09-21T05:08:57.336Z,144.00
2022-09-21T05:09:57.357Z,160.00
2022-09-21T05:10:57.383Z,180.00
2022-09-21T05:11:57.404Z,204.00
2022-09-21T05:12:57.430Z,224.00
2022-09-21T05:13:57.557Z,248.00
2022-09-21T05:14:57.478Z,272.00
2022-09-21T05:15:57.535Z,300.00
2022-09-21T05:16:57.528Z,328.00
2022-09-21T05:17:57.547Z,360.00
2022-09-21T05:18:57.572Z,392.00
2022-09-21T05:19:57.594Z,428.00
2022-09-21T05:20:57.621Z,460.00
2022-09-21T05:21:57.642Z,496.00
2022-09-21T05:22:57.668Z,536.00
2022-09-21T05:23:57.705Z,580.00
2022-09-21T05:24:57.717Z,620.00
2022-09-21T05:25:57.738Z,664.00
2022-09-21T05:26:57.763Z,704.00
2022-09-21T05:27:57.787Z,752.00
2022-09-21T05:28:57.901Z,804.00
2022-09-21T05:29:57.834Z,852.00
2022-09-21T05:31:16.636Z,904.00
2022-09-21T05:31:57.882Z,956.00
2022-09-21T05:32:57.909Z,1008.00
2022-09-21T05:33:57.930Z,1064.00
2022-09-21T05:34:57.956Z,1120.00
2022-09-21T05:35:57.978Z,1176.00
2022-09-21T05:36:58.003Z,1236.00
2022-09-21T05:37:58.024Z,1292.00
2022-09-21T05:38:58.050Z,1348.00
2022-09-21T05:39:58.090Z,1412.00
2022-09-21T05:40:58.100Z,1468.00
2022-09-21T05:41:58.121Z,1528.00
2022-09-21T05:42:58.146Z,1584.00
2022-09-21T05:43:58.234Z,1648.00
2022-09-21T05:44:58.195Z,1712.00
2022-09-21T05:45:58.263Z,1776.00
2022-09-21T05:46:58.243Z,1836.00
2022-09-21T05:47:58.264Z,1896.00
2022-09-21T05:48:58.290Z,1944.00
2022-09-21T05:50:45.871Z,2044.00
2022-09-21T05:51:45.897Z,2100.00
2022-09-21T05:52:45.919Z,2152.00
2022-09-21T05:53:45.942Z,2200.00
2022-09-21T05:54:45.966Z,2252.00
2022-09-21T05:55:46.402Z,2324.00
2022-09-21T05:56:46.013Z,2748.00
2022-09-21T05:57:46.042Z,3104.00
2022-09-21T05:58:46.062Z,3548.00
2022-09-21T05:59:46.088Z,4260.00
2022-09-21T06:00:46.111Z,3920.00
2022-09-21T06:01:46.135Z,3248.00
2022-09-21T06:02:46.228Z,3480.00
2022-09-21T06:03:46.183Z,4088.00
2022-09-21T06:04:46.205Z,6780.00
2022-09-21T06:05:46.232Z,8828.00
2022-09-21T06:06:46.254Z,7944.00
2022-09-21T06:07:46.283Z,6400.00
2022-09-21T06:08:46.302Z,5608.00
2022-09-21T06:09:46.330Z,4036.00
2022-09-21T06:10:46.350Z,4004.00
2022-09-21T06:13:12.174Z,5088.00
2022-09-21T06:15:46.472Z,3832.00
2022-09-21T06:16:46.562Z,3396.00
2022-09-21T06:17:46.521Z,9056.00
2022-09-21T06:18:46.547Z,26720.00
2022-09-21T06:19:49.191Z,34656.00
2022-09-21T06:20:46.611Z,27328.00
2022-09-21T06:21:46.618Z,18464.00
2022-09-21T06:22:46.644Z,13620.00
2022-09-21T06:23:46.670Z,7392.00
2022-09-21T06:24:46.693Z,3596.00
2022-09-21T06:25:46.716Z,3596.00
2022-09-21T06:26:46.746Z,3624.00
2022-09-21T06:27:46.767Z,3648.00
2022-09-21T06:28:46.914Z,3672.00
2022-09-21T06:29:46.819Z,3696.00
2022-09-21T06:30:46.907Z,3724.00
2022-09-21T06:31:46.865Z,3736.00
2022-09-21T06:32:46.891Z,3748.00
2022-09-21T06:33:48.247Z,3768.00
2022-09-21T06:34:46.946Z,3784.00
2022-09-21T06:35:46.965Z,3812.00
2022-09-21T06:36:46.990Z,3848.00
2022-09-21T06:37:47.014Z,3880.00
2022-09-21T06:38:47.040Z,3904.00
2022-09-21T06:39:47.066Z,3928.00
2022-09-21T06:40:47.090Z,3960.00
2022-09-21T06:41:47.113Z,3984.00
2022-09-21T06:42:47.142Z,4008.00
2022-09-21T06:43:47.165Z,4040.00
2022-09-21T06:44:47.218Z,4064.00
2022-09-21T06:45:47.246Z,4080.00
2022-09-21T06:46:47.243Z,4084.00
2022-09-21T06:47:47.268Z,4100.00
2022-09-21T06:48:47.293Z,4112.00
2022-09-21T06:49:47.313Z,4112.00
2022-09-21T06:50:47.340Z,4124.00
2022-09-21T06:51:47.365Z,4152.00
2022-09-21T06:52:47.390Z,4172.00
2022-09-21T06:53:47.414Z,4184.00
2022-09-21T06:54:47.440Z,4204.00
2022-09-21T06:55:47.462Z,4216.00
2022-09-21T06:56:47.489Z,4228.00
2022-09-21T06:57:47.513Z,4240.00
2022-09-21T06:58:47.540Z,4260.00
2022-09-21T06:59:47.564Z,4272.00
2022-09-21T07:00:47.794Z,4284.00
2022-09-21T07:01:47.738Z,4280.00
2022-09-21T07:02:47.639Z,4296.00
2022-09-21T07:03:47.662Z,4304.00
2022-09-21T07:04:47.686Z,4316.00
2022-09-21T07:05:47.709Z,4328.00
2022-09-21T07:06:47.736Z,4332.00
2022-09-21T07:07:53.265Z,4344.00
2022-09-21T07:10:47.841Z,4372.00
2022-09-21T07:11:47.861Z,4396.00
2022-09-21T07:12:47.886Z,4416.00
2022-09-21T07:13:47.910Z,4428.00
2022-09-21T07:14:47.938Z,4452.00
2022-09-21T07:15:51.426Z,4472.00
2022-09-21T07:16:48.048Z,4484.00
2022-09-21T07:17:52.224Z,4500.00
2022-09-21T07:18:48.039Z,4508.00
2022-09-21T07:19:48.063Z,4520.00
2022-09-21T07:20:48.088Z,4540.00
2022-09-21T07:21:48.110Z,4548.00
2022-09-21T07:22:48.139Z,4564.00
2022-09-21T07:23:48.162Z,4580.00
2022-09-21T07:24:48.190Z,4600.00
2022-09-21T07:25:48.212Z,4620.00
2022-09-21T07:26:48.239Z,4632.00
2022-09-21T07:27:48.263Z,4644.00
2022-09-21T07:28:48.289Z,4652.00
2022-09-21T07:29:48.313Z,4664.00
2022-09-21T07:30:48.339Z,4696.00
2022-09-21T07:31:48.527Z,4720.00
2022-09-21T07:32:48.407Z,4748.00
2022-09-21T07:33:48.415Z,4764.00
2022-09-21T07:34:48.443Z,4804.00
2022-09-21T07:35:48.466Z,4824.00
2022-09-21T07:36:48.492Z,4836.00
2022-09-21T07:37:48.519Z,4864.00
2022-09-21T07:38:48.544Z,4888.00
2022-09-21T07:39:48.571Z,4888.00
2022-09-21T07:40:48.681Z,4896.00
2022-09-21T07:41:48.625Z,4912.00
2022-09-21T07:42:48.652Z,4912.00
2022-09-21T07:43:48.678Z,4916.00
2022-09-21T07:44:48.704Z,4920.00
2022-09-21T07:45:48.752Z,4924.00
2022-09-21T07:46:48.757Z,4912.00
2022-09-21T07:47:48.783Z,4900.00
2022-09-21T07:48:48.867Z,4884.00
2022-09-21T07:49:48.837Z,4872.00
2022-09-21T07:50:48.865Z,4876.00
2022-09-21T07:51:48.891Z,4876.00
2022-09-21T07:52:48.916Z,4876.00
2022-09-21T07:53:48.941Z,4872.00
2022-09-21T07:54:51.591Z,4876.00
2022-09-21T07:55:50.214Z,4876.00
2022-09-21T07:56:49.028Z,4880.00
2022-09-21T07:57:49.056Z,4896.00
2022-09-21T07:58:49.080Z,4904.00
2022-09-21T07:59:49.108Z,4920.00
2022-09-21T08:00:49.198Z,4936.00
2022-09-21T08:01:49.189Z,4940.00
2022-09-21T08:02:49.281Z,4968.00
2022-09-21T08:03:49.214Z,4996.00
2022-09-21T08:04:49.257Z,4996.00
2022-09-21T08:05:49.268Z,5016.00
2022-09-21T08:06:49.298Z,5024.00
2022-09-21T08:07:49.325Z,5016.00
2022-09-21T08:08:51.594Z,5000.00
2022-09-21T08:09:49.388Z,4980.00
2022-09-21T08:10:49.408Z,4996.00
2022-09-21T08:11:49.436Z,5000.00
2022-09-21T08:12:49.463Z,4972.00
2022-09-21T08:13:49.490Z,4928.00
2022-09-21T08:14:49.521Z,4940.00
2022-09-21T08:15:50.457Z,4936.00
2022-09-21T08:16:49.675Z,4900.00
2022-09-21T08:17:49.603Z,4880.00
2022-09-21T08:18:49.632Z,4884.00
2022-09-21T08:19:49.657Z,4900.00
2022-09-21T08:20:49.705Z,4836.00
2022-09-21T08:21:53.524Z,4780.00
2022-09-21T08:22:49.743Z,4776.00
2022-09-21T08:23:49.770Z,4740.00
2022-09-21T08:24:49.799Z,4752.00
2022-09-21T08:25:49.830Z,4788.00
2022-09-21T08:26:49.858Z,4796.00
2022-09-21T08:27:49.884Z,4788.00
2022-09-21T08:28:49.969Z,4776.00
2022-09-21T08:29:49.940Z,4768.00
2022-09-21T08:30:49.973Z,4772.00
2022-09-21T08:31:50.064Z,4772.00
2022-09-21T08:32:51.770Z,4760.00
2022-09-21T08:33:50.222Z,4728.00
2022-09-21T08:34:50.084Z,4712.00
2022-09-21T08:35:50.114Z,4696.00
2022-09-21T08:39:50.249Z,4712.00
2022-09-21T08:40:50.256Z,4720.00
2022-09-21T08:41:50.287Z,4740.00
2022-09-21T08:42:51.028Z,4752.00
2022-09-21T08:43:50.344Z,4756.00
2022-09-21T08:44:50.372Z,4732.00
2022-09-21T08:45:50.406Z,4712.00
2022-09-21T08:46:50.674Z,4708.00
2022-09-21T08:47:50.462Z,4708.00
2022-09-21T08:48:50.490Z,4708.00
2022-09-21T08:49:50.520Z,4700.00
2022-09-21T08:50:50.550Z,4688.00
2022-09-21T08:51:50.580Z,4676.00
2022-09-21T08:52:50.606Z,4664.00
2022-09-21T08:53:50.639Z,4644.00
2022-09-21T08:54:50.667Z,4656.00
2022-09-21T08:55:50.716Z,4656.00
2022-09-21T08:57:04.905Z,4644.00
2022-09-21T08:58:50.787Z,4632.00
2022-09-21T08:59:50.815Z,4644.00
2022-09-21T09:01:50.910Z,4688.00
2022-09-21T09:02:50.903Z,4708.00
2022-09-21T09:03:50.936Z,4720.00
2022-09-21T09:04:50.963Z,4644.00
2022-09-21T09:05:50.996Z,4648.00
2022-09-21T09:06:51.021Z,4652.00
2022-09-21T09:07:51.055Z,4668.00
2022-09-21T09:08:51.082Z,4680.00
2022-09-21T09:09:51.114Z,4676.00
2022-09-21T09:10:51.140Z,4676.00
2022-09-21T09:11:51.191Z,4676.00
2022-09-21T09:12:51.200Z,4688.00
2022-09-21T09:13:51.232Z,4660.00
2022-09-21T09:14:51.261Z,4628.00
2022-09-21T09:15:51.312Z,4588.00
2022-09-21T09:16:51.320Z,4572.00
2022-09-21T09:17:51.352Z,4568.00
2022-09-21T09:18:51.380Z,4564.00
2022-09-21T09:19:51.412Z,4556.00
2022-09-21T09:20:51.438Z,4548.00
2022-09-21T09:21:51.467Z,4552.00
2022-09-21T09:22:51.497Z,4576.00
2022-09-21T09:23:51.544Z,4552.00
2022-09-21T09:24:51.565Z,4532.00
2022-09-21T09:25:51.603Z,4520.00
2022-09-21T09:26:51.622Z,4508.00
2022-09-21T09:27:51.668Z,4504.00
2022-09-21T09:28:53.261Z,4484.00
2022-09-21T09:29:51.708Z,4472.00
2022-09-21T09:30:51.737Z,4468.00
2022-09-21T09:31:51.838Z,4448.00
2022-09-21T09:32:51.796Z,4436.00
2022-09-21T09:33:51.830Z,4396.00
2022-09-21T09:34:51.858Z,4352.00
2022-09-21T09:35:51.888Z,4348.00
2022-09-21T09:36:58.810Z,4344.00
2022-09-21T09:37:51.946Z,4332.00
2022-09-21T09:38:51.973Z,4304.00
2022-09-21T09:39:52.003Z,4288.00
2022-09-21T09:40:52.033Z,4256.00
2022-09-21T09:41:52.063Z,4260.00
2022-09-21T09:42:52.093Z,4244.00
2022-09-21T09:43:52.143Z,4216.00
2022-09-21T09:44:52.151Z,4196.00
2022-09-21T09:45:52.180Z,4164.00
2022-09-21T09:46:52.273Z,4144.00
2022-09-21T09:47:52.241Z,4140.00
2022-09-21T09:48:54.329Z,4156.00
2022-09-21T09:49:52.296Z,4156.00
2022-09-21T09:50:52.324Z,4152.00
2022-09-21T09:51:52.356Z,4128.00
2022-09-21T09:52:52.384Z,4116.00
2022-09-21T09:53:52.412Z,4104.00
2022-09-21T09:54:52.441Z,4080.00
2022-09-21T09:55:52.474Z,4068.00
2022-09-21T09:56:52.498Z,4044.00
2022-09-21T09:57:52.527Z,4032.00
2022-09-21T09:58:52.563Z,4024.00
2022-09-21T09:59:54.587Z,4016.00
2022-09-21T10:00:53.193Z,4024.00
2022-09-21T10:01:52.695Z,4032.00
2022-09-21T10:02:52.669Z,4024.00
2022-09-21T10:03:52.723Z,4012.00
2022-09-21T10:04:52.728Z,4000.00
2022-09-21T10:05:52.756Z,4004.00
2022-09-21T10:06:52.783Z,3992.00
2022-09-21T10:07:52.813Z,3976.00
2022-09-21T10:08:52.839Z,3960.00
2022-09-21T10:09:52.871Z,3940.00
2022-09-21T10:10:52.899Z,3900.00
2022-09-21T10:11:52.941Z,3880.00
2022-09-21T10:12:52.953Z,3864.00
2022-09-21T10:13:52.987Z,3852.00
2022-09-21T10:14:53.014Z,3844.00
2022-09-21T10:15:53.139Z,3852.00
2022-09-21T10:16:53.070Z,3860.00
2022-09-21T10:17:53.098Z,3868.00
2022-09-21T10:18:53.132Z,3872.00
2022-09-21T10:19:53.156Z,3872.00
2022-09-21T10:20:53.185Z,3864.00
2022-09-21T10:21:53.213Z,3864.00
2022-09-21T10:22:53.240Z,3864.00
2022-09-21T10:23:53.273Z,3868.00
2022-09-21T10:24:53.298Z,3856.00
2022-09-21T10:25:53.327Z,3844.00
2022-09-21T10:26:53.356Z,3844.00
2022-09-21T10:27:53.435Z,3848.00
2022-09-21T10:28:53.413Z,3824.00
2022-09-21T10:29:53.442Z,3796.00
2022-09-21T10:30:53.499Z,3784.00
2022-09-21T10:31:53.517Z,3776.00
2022-09-21T10:32:53.530Z,3772.00
2022-09-21T10:33:53.558Z,3784.00
2022-09-21T10:34:53.598Z,3772.00
2022-09-21T10:35:53.643Z,3756.00
2022-09-21T10:36:53.644Z,3740.00
2022-09-21T10:37:53.693Z,3732.00
2022-09-21T10:38:53.702Z,3728.00
2022-09-21T10:39:53.745Z,3720.00
2022-09-21T10:40:53.759Z,3720.00
2022-09-21T10:41:53.785Z,3736.00
2022-09-21T10:42:53.817Z,3744.00
2022-09-21T10:43:53.845Z,3756.00
2022-09-21T10:44:54.028Z,3760.00
2022-09-21T10:45:54.027Z,3756.00
2022-09-21T10:46:54.065Z,3760.00
2022-09-21T10:47:53.980Z,3812.00
2022-09-21T10:48:53.991Z,3844.00
2022-09-21T10:49:54.017Z,3856.00
2022-09-21T10:50:54.048Z,3872.00
2022-09-21T10:51:56.697Z,3896.00
2022-09-21T10:52:54.105Z,3948.00
2022-09-21T10:53:54.696Z,3968.00
2022-09-21T10:54:54.164Z,4044.00
2022-09-21T10:56:11.782Z,4140.00
2022-09-21T10:56:54.222Z,4212.00
2022-09-21T10:57:54.250Z,4296.00
2022-09-21T10:58:54.280Z,4380.00
2022-09-21T10:59:54.307Z,4428.00
2022-09-21T11:00:54.337Z,4492.00
2022-09-21T11:01:54.477Z,4500.00
2022-09-21T11:02:54.442Z,4388.00
2022-09-21T11:03:54.451Z,4156.00
2022-09-21T11:04:54.457Z,4020.00
2022-09-21T11:05:54.486Z,3868.00
2022-09-21T11:06:54.512Z,3816.00
2022-09-21T11:07:54.542Z,3804.00
2022-09-21T11:08:54.571Z,3816.00
2022-09-21T11:09:54.601Z,3820.00
2022-09-21T11:10:54.629Z,3828.00
2022-09-21T11:11:54.860Z,3716.00
2022-09-21T11:12:54.686Z,3840.00
2022-09-21T11:13:54.715Z,3844.00
2022-09-21T11:14:54.745Z,3820.00
2022-09-21T11:15:54.943Z,3796.00
2022-09-21T11:16:54.802Z,3828.00
2022-09-21T11:17:54.830Z,3860.00
2022-09-21T11:18:54.951Z,3844.00
2022-09-21T11:19:54.907Z,3788.00
2022-09-21T11:20:54.919Z,3740.00
2022-09-21T11:21:54.948Z,3732.00
2022-09-21T11:22:57.529Z,3748.00
2022-09-21T11:23:55.007Z,3776.00
2022-09-21T11:24:55.035Z,3848.00
2022-09-21T11:25:55.063Z,3944.00
2022-09-21T11:26:55.096Z,4044.00
2022-09-21T11:27:55.121Z,4044.00
2022-09-21T11:28:55.212Z,4000.00
2022-09-21T11:29:55.181Z,3984.00
2022-09-21T11:30:55.242Z,3940.00
2022-09-21T11:31:55.240Z,3884.00
2022-09-21T11:32:55.269Z,3872.00
2022-09-21T11:33:55.355Z,3892.00
2022-09-21T11:34:55.333Z,3912.00
2022-09-21T11:35:55.375Z,3928.00
2022-09-21T11:36:55.385Z,3920.00
2022-09-21T11:37:55.413Z,3904.00
2022-09-21T11:38:55.452Z,3900.00
2022-09-21T11:39:55.473Z,3876.00
2022-09-21T11:40:55.504Z,3896.00
2022-09-21T11:41:55.532Z,3948.00
2022-09-21T11:42:55.558Z,3980.00
2022-09-21T11:44:38.146Z,3980.00
2022-09-21T11:45:38.187Z,3972.00
2022-09-21T11:46:38.198Z,3944.00
2022-09-21T11:47:38.227Z,3924.00
2022-09-21T11:48:38.257Z,3876.00
2022-09-21T11:49:38.286Z,3848.00
2022-09-21T11:50:38.418Z,3884.00
2022-09-21T11:51:38.377Z,3936.00
2022-09-21T11:52:38.371Z,3960.00
2022-09-21T11:53:38.400Z,4008.00
2022-09-21T11:54:38.429Z,4056.00
2022-09-21T11:55:38.463Z,4068.00
2022-09-21T11:56:38.486Z,4020.00
2022-09-21T11:57:38.517Z,4064.00
2022-09-21T11:58:38.545Z,4120.00
2022-09-21T11:59:38.574Z,4008.00
2022-09-21T12:00:38.603Z,4280.00
2022-09-21T12:01:38.633Z,4296.00
2022-09-21T12:02:38.939Z,4268.00
2022-09-21T12:03:38.694Z,4240.00
2022-09-21T12:04:38.721Z,3648.00
2022-09-21T12:05:38.750Z,3468.00
2022-09-21T12:06:38.780Z,3092.00
2022-09-21T12:07:38.827Z,3824.00
2022-09-21T12:08:38.838Z,4088.00
2022-09-21T12:09:38.867Z,4036.00
2022-09-21T12:10:38.894Z,4012.00
2022-09-21T12:11:38.926Z,3956.00
2022-09-21T12:12:38.956Z,3904.00
2022-09-21T12:13:38.985Z,3876.00
2022-09-21T12:14:39.086Z,3864.00
2022-09-21T12:15:39.042Z,3860.00
2022-09-21T12:16:39.164Z,3844.00
2022-09-21T12:17:39.100Z,3828.00
2022-09-21T12:18:42.491Z,3840.00
2022-09-21T12:19:39.157Z,3876.00
2022-09-21T12:20:39.184Z,3920.00
2022-09-21T12:21:39.215Z,3936.00
2022-09-21T12:22:42.085Z,3952.00
2022-09-21T12:23:39.272Z,3984.00
2022-09-21T12:24:39.300Z,4012.00
2022-09-21T12:25:39.330Z,4024.00
2022-09-21T12:26:39.359Z,4056.00
2022-09-21T12:27:39.389Z,4108.00
2022-09-21T12:28:39.422Z,4160.00
2022-09-21T12:29:39.451Z,4248.00
2022-09-21T12:30:42.952Z,4332.00
2022-09-21T12:31:39.508Z,4356.00
2022-09-21T12:32:39.532Z,4352.00
2022-09-21T12:33:39.560Z,4308.00
2022-09-21T12:34:39.589Z,4304.00
2022-09-21T12:35:39.639Z,4312.00
2022-09-21T12:36:41.824Z,4336.00
2022-09-21T12:37:39.679Z,4352.00
2022-09-21T12:38:39.731Z,4364.00
2022-09-21T12:39:39.738Z,4440.00
2022-09-21T12:40:39.850Z,4472.00
2022-09-21T12:41:39.796Z,4464.00
2022-09-21T12:42:39.822Z,4416.00
2022-09-21T12:43:39.871Z,4376.00
2022-09-21T12:44:42.673Z,4388.00
2022-09-21T12:45:39.962Z,4500.00